createdAt,value
2022-08-17T00:02:25.905Z,3.87
2022-08-17T00:05:31.947Z,3.97
2022-08-17T00:08:38.339Z,3.35
2022-08-17T00:11:43.363Z,3.25
2022-08-17T00:15:10.472Z,3.15
2022-08-17T00:19:04.184Z,3.10
2022-08-17T00:22:29.916Z,3.67
2022-08-17T00:24:58.967Z,3.42
2022-08-17T00:28:00.925Z,3.42
2022-08-17T00:31:02.806Z,3.55
2022-08-17T00:34:06.314Z,3.42
2022-08-17T00:37:08.302Z,3.47
2022-08-17T00:40:13.188Z,3.40
2022-08-17T00:43:15.008Z,3.62
2022-08-17T00:46:28.464Z,3.55
2022-08-17T00:49:31.431Z,3.70
2022-08-17T00:52:37.462Z,4.00
2022-08-17T00:55:39.431Z,3.87
2022-08-17T00:58:41.658Z,3.78
2022-08-17T01:01:44.220Z,3.97
2022-08-17T01:04:49.407Z,3.78
2022-08-17T01:07:51.741Z,4.30
2022-08-17T01:11:01.759Z,3.92
2022-08-17T01:14:04.308Z,3.70
2022-08-17T01:17:07.086Z,3.85
2022-08-17T01:20:09.629Z,4.22
2022-08-17T01:23:11.268Z,4.07
2022-08-17T01:26:20.776Z,4.05
2022-08-17T01:29:24.814Z,4.57
2022-08-17T01:32:28.293Z,4.30
2022-08-17T01:35:29.975Z,4.68
2022-08-17T01:38:32.119Z,4.75
2022-08-17T01:41:34.935Z,3.85
2022-08-17T01:44:37.231Z,4.62
2022-08-17T01:47:41.908Z,4.45
2022-08-17T01:50:44.872Z,4.75
2022-08-17T01:53:52.519Z,4.57
2022-08-17T01:56:54.326Z,4.40
2022-08-17T01:59:56.180Z,4.47
2022-08-17T02:02:58.005Z,4.60
2022-08-17T02:05:59.888Z,4.75
2022-08-17T02:09:03.808Z,4.50
2022-08-17T02:12:37.839Z,4.20
2022-08-17T02:15:29.904Z,4.43
2022-08-17T02:18:31.709Z,4.50
2022-08-17T02:21:34.139Z,4.62
2022-08-17T02:25:00.783Z,4.28
2022-08-17T02:28:00.112Z,4.65
2022-08-17T02:31:08.102Z,5.00
2022-08-17T02:34:10.354Z,4.90
2022-08-17T02:37:12.047Z,4.22
2022-08-17T02:40:13.868Z,4.45
2022-08-17T02:43:15.941Z,4.60
2022-08-17T02:46:17.791Z,4.43
2022-08-17T02:49:22.702Z,5.05
2022-08-17T02:53:01.362Z,4.65
2022-08-17T02:56:07.414Z,4.32
2022-08-17T02:59:09.355Z,4.55
2022-08-17T03:02:12.540Z,4.55
2022-08-17T03:05:17.359Z,4.35
2022-08-17T03:08:20.295Z,4.90
2022-08-17T03:11:22.409Z,4.60
2022-08-17T03:14:26.114Z,4.28
2022-08-17T03:17:28.209Z,4.65
2022-08-17T03:20:36.595Z,4.70
2022-08-17T03:23:41.218Z,4.50
2022-08-17T03:26:43.403Z,4.37
2022-08-17T03:29:45.449Z,4.55
2022-08-17T03:32:49.787Z,4.35
2022-08-17T03:35:52.271Z,4.72
2022-08-17T03:38:54.123Z,4.45
2022-08-17T03:42:31.397Z,4.57
2022-08-17T03:45:53.448Z,4.70
2022-08-17T03:49:13.838Z,8.30
2022-08-17T03:52:34.413Z,4.70
2022-08-17T03:55:56.385Z,4.72
2022-08-17T03:58:58.330Z,5.03
2022-08-17T04:02:11.376Z,4.62
2022-08-17T04:05:15.043Z,5.07
2022-08-17T04:08:16.835Z,4.22
2022-08-17T04:11:18.525Z,4.70
2022-08-17T04:14:20.733Z,5.00
2022-08-17T04:17:26.343Z,4.45
2022-08-17T04:20:29.296Z,4.62
2022-08-17T04:23:33.848Z,5.68
2022-08-17T04:26:52.810Z,5.60
2022-08-17T04:29:56.365Z,4.37
2022-08-17T04:33:07.272Z,4.60
2022-08-17T04:36:09.074Z,4.53
2022-08-17T04:39:11.157Z,5.30
2022-08-17T04:42:17.403Z,4.47
2022-08-17T04:45:19.238Z,4.90
2022-08-17T04:48:21.840Z,4.82
2022-08-17T04:51:28.094Z,4.45
2022-08-17T04:54:30.283Z,4.40
2022-08-17T04:57:39.435Z,4.60
2022-08-17T05:00:41.335Z,4.80
2022-08-17T05:03:44.124Z,4.85
2022-08-17T05:06:46.766Z,4.47
2022-08-17T05:09:48.431Z,3.87
2022-08-17T05:13:05.686Z,4.20
2022-08-17T05:16:09.129Z,4.62
2022-08-17T05:19:10.888Z,4.70
2022-08-17T05:22:14.643Z,4.70
2022-08-17T05:25:25.569Z,4.53
2022-08-17T05:28:28.500Z,4.57
2022-08-17T05:31:31.638Z,4.50
2022-08-17T05:34:33.425Z,4.40
2022-08-17T05:37:35.059Z,4.05
2022-08-17T05:40:37.347Z,3.90
2022-08-17T05:43:41.692Z,3.95
2022-08-17T05:46:49.039Z,3.62
2022-08-17T05:49:51.045Z,3.87
2022-08-17T05:53:10.591Z,4.47
2022-08-17T05:56:22.685Z,4.30
2022-08-17T05:59:53.913Z,4.22
2022-08-17T06:03:22.576Z,4.75
2022-08-17T06:06:36.862Z,4.30
2022-08-17T06:09:52.142Z,4.45
2022-08-17T06:13:15.934Z,4.05
2022-08-17T06:16:31.160Z,4.50
2022-08-17T06:19:59.837Z,4.20
2022-08-17T06:23:10.924Z,5.10
2022-08-17T06:26:21.203Z,4.80
2022-08-17T06:30:00.947Z,4.37
2022-08-17T06:33:13.198Z,4.30
2022-08-17T06:36:23.757Z,4.37
2022-08-17T06:39:38.197Z,4.53
2022-08-17T06:43:06.907Z,4.43
2022-08-17T06:46:11.806Z,4.87
2022-08-17T06:49:34.644Z,4.53
2022-08-17T06:52:47.426Z,4.68
2022-08-17T06:56:03.438Z,5.15
2022-08-17T06:59:07.944Z,5.35
2022-08-17T07:02:15.281Z,5.32
2022-08-17T07:05:21.352Z,5.07
2022-08-17T07:08:35.032Z,4.90
2022-08-17T07:11:50.520Z,4.90
2022-08-17T07:14:56.938Z,4.82
2022-08-17T07:17:59.690Z,4.93
2022-08-17T07:21:17.493Z,5.28
2022-08-17T07:24:29.474Z,4.35
2022-08-17T07:27:37.751Z,4.78
2022-08-17T07:30:47.349Z,4.40
2022-08-17T07:34:08.845Z,5.20
2022-08-17T07:37:10.967Z,4.62
2022-08-17T07:41:07.875Z,4.75
2022-08-17T07:44:15.252Z,5.03
2022-08-17T07:47:37.721Z,4.95
2022-08-17T07:50:39.659Z,5.10
2022-08-17T07:53:41.770Z,4.50
2022-08-17T07:56:45.822Z,4.90
2022-08-17T07:59:59.637Z,4.55
2022-08-17T08:03:23.751Z,4.80
2022-08-17T08:06:27.931Z,4.97
2022-08-17T08:09:45.943Z,4.60
2022-08-17T08:12:53.757Z,4.60
2022-08-17T08:16:13.671Z,4.30
2022-08-17T08:19:20.917Z,4.60
2022-08-17T08:22:30.513Z,4.35
2022-08-17T08:25:56.888Z,4.85
2022-08-17T08:29:19.925Z,4.50
2022-08-17T08:32:34.380Z,4.82
2022-08-17T08:35:54.293Z,3.72
2022-08-17T08:39:04.777Z,4.28
2022-08-17T08:42:15.762Z,3.97
2022-08-17T08:45:53.080Z,4.15
2022-08-17T08:49:11.844Z,4.53
2022-08-17T08:52:21.808Z,4.03
2022-08-17T08:55:59.055Z,3.70
2022-08-17T08:59:09.117Z,3.35
2022-08-17T09:02:28.918Z,3.60
2022-08-17T09:06:01.947Z,3.78
2022-08-17T09:09:24.857Z,3.53
2022-08-17T09:12:32.180Z,3.75
2022-08-17T09:15:42.662Z,3.20
2022-08-17T09:19:02.414Z,3.50
2022-08-17T09:22:17.813Z,3.37
2022-08-17T09:25:28.752Z,3.25
2022-08-17T09:28:36.435Z,3.35
2022-08-17T09:31:49.431Z,3.20
2022-08-17T09:34:55.195Z,3.10
2022-08-17T09:38:11.935Z,3.05
2022-08-17T09:41:25.259Z,3.00
2022-08-17T09:44:31.063Z,3.00
2022-08-17T09:47:45.502Z,3.00
2022-08-17T09:51:06.543Z,2.90
2022-08-17T09:54:45.336Z,2.65
2022-08-17T09:58:05.244Z,2.80
2022-08-17T10:01:21.306Z,2.95
2022-08-17T10:04:35.029Z,2.80
2022-08-17T10:08:16.739Z,2.62
2022-08-17T10:12:07.370Z,3.17
2022-08-17T10:15:37.812Z,2.80
2022-08-17T10:19:05.896Z,2.67
2022-08-17T10:22:38.106Z,2.72
2022-08-17T10:26:05.551Z,3.10
2022-08-17T10:29:28.862Z,2.80
2022-08-17T10:33:02.847Z,2.87
2022-08-17T10:36:17.919Z,3.05
2022-08-17T10:39:36.580Z,2.75
2022-08-17T10:43:06.965Z,2.78
2022-08-17T10:46:52.458Z,3.00
2022-08-17T10:49:56.117Z,3.10
2022-08-17T10:52:57.779Z,3.15
2022-08-17T10:56:15.591Z,3.30
2022-08-17T10:59:35.722Z,3.33
2022-08-17T11:02:52.272Z,3.50
2022-08-17T11:06:06.017Z,3.20
2022-08-17T11:09:37.265Z,3.20
2022-08-17T11:13:13.041Z,3.25
2022-08-17T11:16:33.588Z,3.08
2022-08-17T11:20:07.545Z,3.03
2022-08-17T11:23:27.374Z,3.33
2022-08-17T11:26:32.700Z,2.70
2022-08-17T11:29:52.629Z,3.03
2022-08-17T11:32:58.457Z,2.83
2022-08-17T11:36:24.589Z,2.83
2022-08-17T11:39:44.963Z,3.25
2022-08-17T11:42:49.891Z,3.50
2022-08-17T11:46:04.943Z,3.10
2022-08-17T11:49:38.457Z,3.58
2022-08-17T11:52:44.509Z,3.58
2022-08-17T11:55:51.808Z,3.17
2022-08-17T11:58:53.594Z,3.58
2022-08-17T12:01:57.281Z,2.87
2022-08-17T12:05:17.396Z,3.30
2022-08-17T12:08:22.016Z,3.33
2022-08-17T12:12:10.950Z,3.17
2022-08-17T12:15:10.009Z,3.30
2022-08-17T12:18:20.572Z,2.80
2022-08-17T12:21:45.141Z,3.00
2022-08-17T12:25:02.391Z,2.60
2022-08-17T12:28:19.829Z,2.87
2022-08-17T12:31:27.198Z,3.05
2022-08-17T12:34:43.876Z,3.08
2022-08-17T12:37:49.386Z,3.00
2022-08-17T12:40:58.091Z,2.67
2022-08-17T12:44:04.147Z,2.90
2022-08-17T12:47:22.422Z,3.22
2022-08-17T12:50:28.478Z,2.62
2022-08-17T12:53:35.239Z,2.58
2022-08-17T12:56:37.525Z,2.53
2022-08-17T12:59:55.131Z,2.50
2022-08-17T13:03:03.559Z,2.58
2022-08-17T13:06:09.734Z,2.53
2022-08-17T13:09:15.355Z,2.58
2022-08-17T13:12:26.678Z,2.60
2022-08-17T13:15:32.936Z,2.30
2022-08-17T13:18:42.508Z,2.30
2022-08-17T13:21:48.335Z,2.30
2022-08-17T13:25:00.875Z,2.10
2022-08-17T13:28:02.904Z,1.90
2022-08-17T13:31:24.334Z,2.20
2022-08-17T13:34:27.050Z,1.90
2022-08-17T13:37:35.113Z,1.95
2022-08-17T13:40:38.999Z,2.67
2022-08-17T13:43:45.117Z,2.15
2022-08-17T13:46:52.528Z,2.80
2022-08-17T13:49:58.930Z,2.20
2022-08-17T13:53:01.011Z,2.08
2022-08-17T13:56:34.951Z,2.10
2022-08-17T13:59:53.596Z,1.87
2022-08-17T14:06:08.849Z,1.70
2022-08-17T14:09:10.681Z,2.28
2022-08-17T14:12:19.353Z,2.30
2022-08-17T14:15:23.543Z,2.00
2022-08-17T14:18:56.413Z,2.28
2022-08-17T14:22:00.575Z,2.30
2022-08-17T14:25:02.515Z,2.30
2022-08-17T14:28:07.689Z,2.22
2022-08-17T14:31:10.972Z,2.60
2022-08-17T14:34:13.175Z,2.80
2022-08-17T14:37:14.881Z,2.95
2022-08-17T14:40:20.987Z,2.87
2022-08-17T14:43:22.735Z,2.80
2022-08-17T14:46:24.835Z,2.92
2022-08-17T14:49:26.498Z,3.15
2022-08-17T14:52:28.707Z,2.70
2022-08-17T14:55:31.248Z,3.10
2022-08-17T14:58:32.972Z,2.40
2022-08-17T15:01:35.459Z,2.30
2022-08-17T15:04:39.848Z,2.40
2022-08-17T15:07:45.138Z,2.60
2022-08-17T15:10:50.000Z,2.45
2022-08-17T15:13:52.892Z,2.40
2022-08-17T15:16:55.049Z,2.30
2022-08-17T15:19:57.093Z,2.40
2022-08-17T15:22:59.313Z,2.37
2022-08-17T15:26:01.391Z,2.37
2022-08-17T15:29:03.397Z,2.00
2022-08-17T15:32:05.183Z,2.37
2022-08-17T15:35:10.346Z,2.30
2022-08-17T15:38:13.059Z,2.37
2022-08-17T15:41:18.336Z,2.53
2022-08-17T15:44:20.031Z,2.65
2022-08-17T15:47:22.553Z,2.22
2022-08-17T15:50:24.227Z,2.10
2022-08-17T15:53:26.042Z,2.25
2022-08-17T15:56:28.798Z,2.30
2022-08-17T15:59:31.181Z,2.33
2022-08-17T16:03:44.507Z,2.30
2022-08-17T16:05:56.553Z,2.30
2022-08-17T16:09:00.434Z,2.30
2022-08-17T16:12:28.234Z,2.33
2022-08-17T16:15:32.053Z,2.47
2022-08-17T16:18:36.463Z,2.33
2022-08-17T16:21:43.171Z,2.25
2022-08-17T16:24:56.843Z,2.35
2022-08-17T16:28:00.168Z,2.30
2022-08-17T16:31:02.061Z,2.75
2022-08-17T16:34:17.696Z,2.55
2022-08-17T16:37:20.337Z,2.22
2022-08-17T16:40:26.061Z,2.58
2022-08-17T16:43:29.432Z,2.47
2022-08-17T16:46:31.507Z,2.42
2022-08-17T16:49:35.773Z,2.72
2022-08-17T16:52:40.538Z,2.58
2022-08-17T16:55:43.188Z,2.40
2022-08-17T16:58:46.146Z,2.75
2022-08-17T17:01:53.035Z,2.60
2022-08-17T17:05:25.459Z,2.58
2022-08-17T17:08:51.075Z,2.78
2022-08-17T17:12:01.019Z,2.30
2022-08-17T17:15:03.051Z,2.33
2022-08-17T17:18:07.317Z,2.50
2022-08-17T17:21:13.958Z,2.62
2022-08-17T17:24:57.469Z,3.40
2022-08-17T17:28:09.775Z,2.70
2022-08-17T17:31:25.370Z,2.45
2022-08-17T17:34:32.517Z,1.80
2022-08-17T17:37:35.624Z,1.70
2022-08-17T17:40:44.994Z,1.90
2022-08-17T17:43:52.917Z,1.65
2022-08-17T17:46:58.350Z,1.95
2022-08-17T17:50:02.370Z,1.67
2022-08-17T17:53:22.591Z,1.62
2022-08-17T17:57:17.767Z,1.70
2022-08-17T18:00:25.892Z,1.70
2022-08-17T18:04:01.507Z,2.47
2022-08-17T18:10:32.966Z,2.80
2022-08-17T18:13:52.181Z,2.20
2022-08-17T18:16:56.670Z,2.58
2022-08-17T18:19:58.634Z,2.92
2022-08-17T18:23:00.292Z,2.83
2022-08-17T18:26:02.137Z,2.78
2022-08-17T18:29:25.497Z,2.60
2022-08-17T18:32:39.031Z,2.95
2022-08-17T18:35:58.662Z,2.47
2022-08-17T18:39:16.639Z,3.03
2022-08-17T18:42:25.987Z,3.00
2022-08-17T18:45:41.063Z,2.90
2022-08-17T18:48:59.247Z,2.42
2022-08-17T18:52:21.375Z,3.05
2022-08-17T18:55:31.395Z,2.90
2022-08-17T18:58:33.293Z,2.87
2022-08-17T19:01:54.665Z,2.83
2022-08-17T19:05:03.753Z,2.55
2022-08-17T19:08:17.725Z,2.50
2022-08-17T19:11:38.727Z,2.30
2022-08-17T19:14:41.568Z,2.50
2022-08-17T19:17:51.854Z,3.00
2022-08-17T19:21:14.866Z,2.87
2022-08-17T19:24:26.500Z,2.83
2022-08-17T19:27:52.270Z,2.87
2022-08-17T19:31:03.553Z,2.80
2022-08-17T19:34:05.729Z,3.00
2022-08-17T19:37:26.436Z,3.05
2022-08-17T19:40:52.216Z,2.62
2022-08-17T19:43:59.821Z,2.78
2022-08-17T19:47:57.854Z,2.87
2022-08-17T19:51:16.050Z,2.75
2022-08-17T19:54:55.989Z,3.12
2022-08-17T19:58:17.893Z,2.72
2022-08-17T20:01:34.969Z,3.12
2022-08-17T20:04:42.450Z,3.00
2022-08-17T20:08:02.565Z,2.72
2022-08-17T20:11:10.916Z,2.78
2022-08-17T20:14:22.730Z,4.00
2022-08-17T20:17:30.877Z,3.00
2022-08-17T20:20:42.993Z,3.10
2022-08-17T20:24:36.379Z,3.05
2022-08-17T20:28:05.544Z,2.75
2022-08-17T20:31:42.538Z,2.67
2022-08-17T20:34:46.679Z,2.87
2022-08-17T20:38:02.476Z,3.30
2022-08-17T20:41:04.074Z,2.83
2022-08-17T20:44:09.185Z,3.05
2022-08-17T20:47:32.007Z,3.30
2022-08-17T20:50:39.533Z,3.25
2022-08-17T20:53:46.993Z,3.85
2022-08-17T20:56:52.030Z,3.37
2022-08-17T20:59:55.298Z,3.40
2022-08-17T21:03:49.147Z,4.87
2022-08-17T21:07:43.666Z,3.42
2022-08-17T21:10:57.744Z,3.60
2022-08-17T21:14:29.380Z,3.25
2022-08-17T21:17:40.121Z,3.30
2022-08-17T21:21:01.785Z,3.45
2022-08-17T21:24:26.323Z,3.45
2022-08-17T21:27:58.891Z,3.50
2022-08-17T21:31:09.203Z,3.40
2022-08-17T21:34:17.077Z,3.12
2022-08-17T21:37:19.039Z,3.35
2022-08-17T21:40:29.550Z,3.37
2022-08-17T21:43:36.744Z,3.58
2022-08-17T21:46:42.969Z,3.25
2022-08-17T21:49:48.726Z,3.50
2022-08-17T21:52:54.510Z,3.10
2022-08-17T21:55:56.691Z,3.08
2022-08-17T21:59:03.672Z,3.45
2022-08-17T22:02:09.408Z,3.85
2022-08-17T22:05:14.572Z,4.03
2022-08-17T22:08:22.225Z,4.15
2022-08-17T22:11:24.227Z,5.12
2022-08-17T22:14:51.437Z,5.32
2022-08-17T22:17:56.035Z,5.55
2022-08-17T22:21:02.589Z,4.57
2022-08-17T22:24:15.994Z,4.90
2022-08-17T22:27:19.331Z,5.43
2022-08-17T22:30:56.578Z,5.72
2022-08-17T22:33:59.833Z,6.68
2022-08-17T22:37:27.827Z,6.68
2022-08-17T22:40:33.654Z,7.50
2022-08-17T22:43:38.488Z,7.45
2022-08-17T22:46:53.498Z,7.65
2022-08-17T22:49:59.026Z,7.72
2022-08-17T22:53:22.306Z,8.35
2022-08-17T22:56:44.539Z,7.57
2022-08-17T22:59:47.798Z,8.00
2022-08-17T23:03:07.030Z,8.77
2022-08-17T23:06:11.275Z,7.70
2022-08-17T23:09:13.186Z,8.13
2022-08-17T23:12:21.745Z,7.30
2022-08-17T23:15:26.451Z,6.25
2022-08-17T23:18:28.543Z,6.10
2022-08-17T23:21:31.423Z,5.32
2022-08-17T23:24:50.878Z,5.00
2022-08-17T23:27:52.954Z,5.28
2022-08-17T23:30:54.838Z,5.68
2022-08-17T23:33:58.974Z,5.22
2022-08-17T23:37:02.308Z,5.25
2022-08-17T23:40:08.669Z,5.68
2022-08-17T23:43:24.197Z,5.57
2022-08-17T23:46:34.938Z,5.85
2022-08-17T23:49:37.582Z,5.37
2022-08-17T23:52:41.293Z,5.72
2022-08-17T23:55:43.198Z,5.57
2022-08-17T23:58:45.002Z,5.85
